x

South Moresby (46147) Wave Buoy

2:00pm - Mon 25th Sep 2017 All times are PDT. -7 hours from GMT.

  • Sig Wave height 6.9ft
  • Peak Period 10s
  • Wind
    7mph, 9mph gusts
  • Sea Temp 56°f
  • Air Temp 56°f
  • Sea Pressure 1015.1mb
  • South Moresby
  • South Moresby

More Historic Weather Station data

Upgrade to MSW Pro to gain access to the past 30 days of data for over 8000 Wavebouys and Weather Stations around the globe.

Join

Comparision Forecast

View Surf forecast
   
Mon 09/25 2:00pm 7ft 10s 7 9 mph 1015.1mb 56f 56f
1:00pm 6.5ft 9s 7 9 mph 1014.5mb 56f 56f
12:00pm 7.5ft 8s 7 9 mph 1014.1mb 56f 56f
11:00am 8ft 9s 7 9 mph 1013.4mb 55f 56f
10:00am 7ft 8s 7 9 mph 1013mb 55f 56f
9:00am 8ft 10s 9 9 mph 1012.3mb 56f 55f
8:00am 8ft 8s 9 11 mph 1011.2mb 55f 56f
7:00am 8ft 7s 9 11 mph 1011.1mb 55f 56f
6:00am 7.5ft 8s 9 11 mph 1010.6mb 55f 56f
5:00am 8.5ft 8s 4 9 mph 1010.1mb 55f 56f
4:00am 8ft 10s 4 4 mph 1009.7mb 55f 56f
3:00am 7.5ft 9s 4 7 mph 1009.6mb 55f 56f
2:00am 8ft 9s 9 11 mph 1009.7mb 55f 57f
1:00am 8.5ft 9s 13 16 mph 1009.6mb 55f 57f
12:00am 9ft 8s 13 18 mph 1009.5mb 55f 57f
Sun 09/24 11:00pm 8.5ft 9s 18 22 mph 1009.5mb 55f 57f
10:00pm 8.5ft 8s 20 25 mph 1009.8mb 55f 57f
9:00pm 9ft 10s 22 27 mph 1009.9mb 55f 57f
8:00pm 8ft 8s 20 25 mph 1010.2mb 55f 57f
7:00pm 8ft 10s 20 25 mph 1010.7mb 55f 57f
6:00pm 8ft 8s 20 22 mph 1011.4mb 55f 57f
5:00pm 8ft 9s 18 22 mph 1012.3mb 55f 57f
4:00pm 8ft 9s 18 22 mph 1013.1mb 55f 57f
3:00pm 8ft 9s 18 22 mph 1013.7mb 55f 57f
2:00pm 8ft 8s 16 18 mph 1014.4mb 55f 57f
1:00pm 8ft 9s 16 18 mph 1014.9mb 55f 57f
12:00pm 8ft 9s 18 20 mph 1015mb 55f 57f
11:00am 7.5ft 8s 18 22 mph 1015mb 56f 57f
10:00am 7.5ft 10s 16 20 mph 1015.1mb 56f 57f
9:00am 8.5ft 9s 13 18 mph 1015mb 56f 57f
8:00am 8ft 9s 16 20 mph 1015mb 56f 57f
7:00am 8ft 8s 13 16 mph 1015.2mb 56f 57f
6:00am 7.5ft 9s 18 25 mph 1015.1mb 56f 57f
5:00am 7ft 9s 20 25 mph 1014.9mb 56f 57f
4:00am 7ft 10s 20 25 mph 1015.4mb 56f 57f
3:00am 7ft 8s 18 22 mph 1015.7mb 56f 57f
2:00am 7ft 8s 16 18 mph 1016.1mb 56f 57f
1:00am 7ft 8s 16 18 mph 1016.6mb 56f 57f
12:00am 7ft 8s 13 16 mph 1017.2mb 56f 57f
Sat 09/23 11:00pm 7ft 8s 13 16 mph 1017.3mb 57f 57f
10:00pm 7ft 8s 13 18 mph 1017.5mb 55f 56f
9:00pm 7ft 8s 11 13 mph 1017.3mb 56f 56f
8:00pm 7ft 8s 13 16 mph 1017.1mb 56f 56f
7:00pm 6ft 12s 11 16 mph 1017.4mb 56f 56f
6:00pm 6ft 11s 11 13 mph 1017.4mb 56f 56f
5:00pm 5.5ft 8s 11 13 mph 1017.9mb 56f 56f
4:00pm 6ft 11s 9 11 mph 1018.1mb 56f 57f
3:00pm 6ft 11s 9 11 mph 1018.1mb 56f 56f
2:00pm 5.5ft 7s 9 13 mph 1018.3mb 56f 57f
1:00pm 6ft 8s 11 16 mph 1018.2mb 56f 56f
12:00pm 5ft 8s 16 18 mph 1017.7mb 56f 57f
11:00am 5ft 7s 16 18 mph 1017.8mb 56f 57f
10:00am 5ft 7s 13 16 mph 1017.6mb 55f 57f
9:00am 5ft 7s 9 11 mph 1017.5mb 55f 56f
8:00am 4.5ft 7s 7 9 mph 1017.6mb 55f 56f
7:00am 5ft 7s 4 7 mph 1017.4mb 55f 56f
6:00am 4.5ft 7s 9 9 mph 1017.7mb 56f 56f
5:00am 5ft 7s 7 9 mph 1017.2mb 54f 56f
4:00am 4.5ft 7s 7 9 mph 1016.7mb 56f 56f
3:00am 4.5ft 6s 9 11 mph 1016.9mb 56f 56f
2:00am 4.5ft 7s 11 13 mph 1017.2mb 56f 56f
1:00am 4.5ft 7s 13 18 mph 1017.3mb 56f 56f
12:00am 4.5ft 7s 11 13 mph 1017.1mb 56f 56f
Fri 09/22 11:00pm 4ft 7s 11 13 mph 1017.1mb 56f 56f
10:00pm 4ft 6s 9 9 mph 1017.3mb 55f 56f
9:00pm 4ft 7s 13 16 mph 1017.2mb 56f 56f
8:00pm 4ft 12s 13 16 mph 1017.3mb 56f 56f
7:00pm 4ft 12s 13 18 mph 1017.2mb 56f 57f
6:00pm 3.5ft 8s 13 16 mph 1017.3mb 56f 57f
5:00pm 3.5ft 8s 11 13 mph 1017.5mb 56f 57f
4:00pm 4ft 12s 13 13 mph 1017.7mb 56f 57f
3:00pm 3.5ft 12s 13 16 mph 1018mb 57f 57f
2:00pm 4.5ft 7s 9 11 mph 1018.5mb 57f 57f
1:00pm 4.5ft 7s 9 11 mph 1018.9mb 56f 57f
12:00pm 4.5ft 6s 7 9 mph 1019.4mb 57f 56f
11:00am 4.5ft 13s 4 4 mph 1019.7mb 57f 55f
10:00am 4.5ft 12s 9 11 mph 1019.8mb 57f 55f
9:00am 4.5ft 8s 11 13 mph 1020mb 56f 55f
8:00am 4.5ft 12s 11 13 mph 1020mb 55f 56f
7:00am 5ft 7s 9 11 mph 1020.1mb 55f 56f
6:00am 5.5ft 7s 16 20 mph 1020.1mb 55f 56f
5:00am 6ft 8s 16 20 mph 1020mb 55f 55f
4:00am 6ft 6s 16 20 mph 1020mb 54f 55f
3:00am 6ft 7s 13 16 mph 1019.9mb 55f 55f
2:00am 6.5ft 8s 16 20 mph 1020.1mb 55f 55f
1:00am 7ft 7s 18 22 mph 1020.2mb 56f 55f
12:00am 7ft 7s 18 22 mph 1020.2mb 56f 55f
Thu 09/21 11:00pm 7.5ft 7s 16 18 mph 1020mb 56f 55f